Time,TemperatureF,DewpointF,PressureIn,WindDirection,WindDirectionDegrees,WindSpeedMPH,WindSpeedGustMPH,Humidity,HourlyPrecipIn,Conditions,Clouds,dailyrainin,SoftwareType,DateUTC
2013-03-05 00:00:00,46.5,41.0,30.08,NW,321,0.0,0.0,81,0.00,,,0.00,Wunderground v.1.15,2013-03-05 05:00:00,
2013-03-05 00:05:00,46.4,40.9,30.08,NW,321,0.0,0.0,81,0.00,,,0.00,Wunderground v.1.15,2013-03-05 05:05:00,
2013-03-05 00:10:00,46.2,40.7,30.08,NW,321,0.0,0.0,81,0.00,,,0.00,Wunderground v.1.15,2013-03-05 05:10:00,
2013-03-05 00:20:00,45.7,40.2,30.08,NW,321,0.0,0.0,81,0.00,,,0.00,Wunderground v.1.15,2013-03-05 05:20:00,
2013-03-05 00:30:00,45.2,39.7,30.07,NW,321,0.0,0.0,81,0.00,,,0.00,Wunderground v.1.15,2013-03-05 05:30:00,
2013-03-05 00:35:00,45.1,39.6,30.07,NW,321,0.0,0.0,81,0.00,,,0.00,Wunderground v.1.15,2013-03-05 05:35:00,
2013-03-05 00:45:00,45.4,39.9,30.06,NNW,337,0.0,0.0,81,0.00,,,0.00,Wunderground v.1.15,2013-03-05 05:45:00,
2013-03-05 00:50:00,45.4,39.6,30.06,North,351,0.0,0.0,80,0.00,,,0.00,Wunderground v.1.15,2013-03-05 05:50:00,
2013-03-05 01:00:00,45.5,39.0,30.05,NNE,21,0.0,0.0,78,0.00,,,0.00,Wunderground v.1.15,2013-03-05 06:00:00,
2013-03-05 01:10:00,45.8,39.0,30.05,NNE,32,0.0,0.0,77,0.00,,,0.00,Wunderground v.1.15,2013-03-05 06:10:00,
2013-03-05 01:15:00,46.0,39.2,30.05,NNE,32,0.0,0.0,77,0.00,,,0.00,Wunderground v.1.15,2013-03-05 06:15:00,
2013-03-05 01:25:00,46.1,39.0,30.05,NNE,32,0.0,0.0,76,0.00,,,0.00,Wunderground v.1.15,2013-03-05 06:25:00,
2013-03-05 01:30:00,46.0,38.9,30.06,NNE,32,0.0,0.0,76,0.00,,,0.00,Wunderground v.1.15,2013-03-05 06:30:00,
2013-03-05 01:40:00,45.5,38.7,30.06,NNE,32,0.0,0.0,77,0.00,,,0.00,Wunderground v.1.15,2013-03-05 06:40:00,
2013-03-05 01:50:00,45.1,38.3,30.06,NNE,32,0.0,0.0,77,0.00,,,0.00,Wunderground v.1.15,2013-03-05 06:50:00,
2013-03-05 01:55:00,44.9,38.5,30.06,NNE,32,0.0,0.0,78,0.00,,,0.00,Wunderground v.1.15,2013-03-05 06:55:00,
2013-03-05 02:05:00,44.6,38.8,30.05,NNE,32,0.0,0.0,80,0.00,,,0.00,Wunderground v.1.15,2013-03-05 07:05:00,
2013-03-05 02:10:00,44.3,38.5,30.05,NNE,32,0.0,0.0,80,0.00,,,0.00,Wunderground v.1.15,2013-03-05 07:10:00,
2013-03-05 02:20:00,44.2,39.1,30.05,NNE,32,0.0,0.0,82,0.00,,,0.00,Wunderground v.1.15,2013-03-05 07:20:00,
2013-03-05 02:30:00,44.6,39.8,30.05,NNE,32,0.0,0.0,83,0.00,,,0.00,Wunderground v.1.15,2013-03-05 07:30:00,
2013-03-05 02:35:00,44.8,39.6,30.05,NNE,32,0.0,0.0,82,0.00,,,0.00,Wunderground v.1.15,2013-03-05 07:35:00,
2013-03-05 02:45:00,44.5,39.3,30.05,NNE,32,0.0,0.0,82,0.00,,,0.00,Wunderground v.1.15,2013-03-05 07:45:00,
2013-03-05 02:55:00,43.9,38.8,30.05,NNE,32,0.0,0.0,82,0.00,,,0.00,Wunderground v.1.15,2013-03-05 07:55:00,
2013-03-05 03:00:00,43.9,39.1,30.05,NNE,32,0.0,0.0,83,0.00,,,0.00,Wunderground v.1.15,2013-03-05 08:00:00,
2013-03-05 03:10:00,43.9,39.1,30.05,NNE,32,0.0,0.0,83,0.00,,,0.00,Wunderground v.1.15,2013-03-05 08:10:00,
2013-03-05 03:20:00,43.6,38.8,30.05,NNE,32,0.0,0.0,83,0.00,,,0.00,Wunderground v.1.15,2013-03-05 08:20:00,
2013-03-05 03:25:00,43.2,38.4,30.05,NNE,32,0.0,0.0,83,0.00,,,0.00,Wunderground v.1.15,2013-03-05 08:25:00,
2013-03-05 03:35:00,42.8,38.3,30.04,NNE,32,0.0,0.0,84,0.00,,,0.00,Wunderground v.1.15,2013-03-05 08:35:00,
2013-03-05 03:45:00,42.6,38.1,30.04,NNE,32,0.0,0.0,84,0.00,,,0.00,Wunderground v.1.15,2013-03-05 08:45:00,
2013-03-05 03:50:00,42.8,38.6,30.04,NNE,32,0.0,0.0,85,0.00,,,0.00,Wunderground v.1.15,2013-03-05 08:50:00,
2013-03-05 04:00:00,42.8,38.6,30.04,NNE,32,0.0,2.0,85,0.00,,,0.00,Wunderground v.1.15,2013-03-05 09:00:00,
2013-03-05 04:05:00,42.9,38.7,30.04,NNE,32,0.0,2.0,85,0.00,,,0.00,Wunderground v.1.15,2013-03-05 09:05:00,
2013-03-05 04:15:00,43.8,39.9,30.04,NNE,32,0.0,0.0,86,0.00,,,0.00,Wunderground v.1.15,2013-03-05 09:15:00,
2013-03-05 04:25:00,44.3,40.4,30.04,NNE,32,0.0,0.0,86,0.00,,,0.00,Wunderground v.1.15,2013-03-05 09:25:00,
2013-03-05 04:35:00,44.8,40.9,30.04,NNE,32,0.0,0.0,86,0.00,,,0.00,Wunderground v.1.15,2013-03-05 09:35:00,
2013-03-05 04:40:00,45.1,41.2,30.04,NNE,32,0.0,0.0,86,0.00,,,0.00,Wunderground v.1.15,2013-03-05 09:40:00,
2013-03-05 04:50:00,45.4,41.5,30.04,NNE,32,0.0,0.0,86,0.00,,,0.00,Wunderground v.1.15,2013-03-05 09:50:00,
2013-03-05 04:55:00,45.4,41.5,30.04,NNE,32,0.0,0.0,86,0.00,,,0.00,Wunderground v.1.15,2013-03-05 09:55:00,
2013-03-05 05:05:00,45.7,42.1,30.05,NNE,32,0.0,0.0,87,0.00,,,0.00,Wunderground v.1.15,2013-03-05 10:05:00,
2013-03-05 05:15:00,45.7,41.8,30.05,NE,49,1.0,1.0,86,0.00,,,0.00,Wunderground v.1.15,2013-03-05 10:15:00,
2013-03-05 05:20:00,45.5,41.6,30.05,East,86,1.0,6.0,86,0.00,,,0.00,Wunderground v.1.15,2013-03-05 10:20:00,
2013-03-05 05:30:00,45.5,41.9,30.05,ESE,116,1.0,1.0,87,0.00,,,0.00,Wunderground v.1.15,2013-03-05 10:30:00,
2013-03-05 05:35:00,45.4,41.5,30.05,East,97,0.0,1.0,86,0.00,,,0.00,Wunderground v.1.15,2013-03-05 10:35:00,
2013-03-05 05:45:00,45.7,41.8,30.05,SE,126,1.0,1.0,86,0.00,,,0.00,Wunderground v.1.15,2013-03-05 10:45:00,
2013-03-05 05:55:00,45.8,41.9,30.05,ESE,109,0.0,0.0,86,0.00,,,0.00,Wunderground v.1.15,2013-03-05 10:55:00,
2013-03-05 06:00:00,46.0,41.7,30.05,ESE,116,0.0,2.0,85,0.00,,,0.00,Wunderground v.1.15,2013-03-05 11:00:00,
2013-03-05 06:10:00,46.1,41.8,30.05,SE,127,0.0,0.0,85,0.00,,,0.00,Wunderground v.1.15,2013-03-05 11:10:00,
2013-03-05 06:20:00,46.4,41.8,30.06,SE,127,0.0,0.0,84,0.00,,,0.00,Wunderground v.1.15,2013-03-05 11:20:00,
2013-03-05 06:25:00,46.4,41.8,30.06,SE,127,0.0,0.0,84,0.00,,,0.00,Wunderground v.1.15,2013-03-05 11:25:00,
2013-03-05 06:35:00,46.4,41.8,30.06,SE,127,0.0,2.0,84,0.00,,,0.00,Wunderground v.1.15,2013-03-05 11:35:00,
2013-03-05 06:40:00,46.4,41.5,30.06,SE,126,0.0,0.0,83,0.00,,,0.00,Wunderground v.1.15,2013-03-05 11:40:00,
2013-03-05 06:50:00,46.2,41.6,30.07,SE,126,0.0,0.0,84,0.00,,,0.00,Wunderground v.1.15,2013-03-05 11:50:00,
2013-03-05 07:00:00,46.0,41.4,30.07,SE,127,0.0,0.0,84,0.00,,,0.00,Wunderground v.1.15,2013-03-05 12:00:00,
2013-03-05 07:05:00,46.0,41.7,30.07,SE,127,0.0,7.0,85,0.00,,,0.00,Wunderground v.1.15,2013-03-05 12:05:00,
2013-03-05 07:15:00,46.1,41.8,30.08,ESE,105,0.0,7.0,85,0.00,,,0.00,Wunderground v.1.15,2013-03-05 12:15:00,
2013-03-05 07:20:00,46.4,42.4,30.08,ESE,105,0.0,7.0,86,0.00,,,0.00,Wunderground v.1.15,2013-03-05 12:20:00,
2013-03-05 07:30:00,47.3,43.0,30.08,ESE,105,0.0,7.0,85,0.00,,,0.00,Wunderground v.1.15,2013-03-05 12:30:00,
2013-03-05 07:35:00,47.7,43.1,30.08,ESE,105,0.0,7.0,84,0.00,,,0.00,Wunderground v.1.15,2013-03-05 12:35:00,
2013-03-05 07:40:00,48.2,43.3,30.08,ESE,105,0.0,7.0,83,0.00,,,0.00,Wunderground v.1.15,2013-03-05 12:40:00,
2013-03-05 07:50:00,49.1,43.5,30.08,ESE,105,0.0,7.0,81,0.00,,,0.00,Wunderground v.1.15,2013-03-05 12:50:00,
2013-03-05 08:00:00,50.2,43.9,30.08,SE,129,0.0,7.0,79,0.00,,,0.00,Wunderground v.1.15,2013-03-05 13:00:00,
2013-03-05 08:05:00,50.8,44.2,30.08,ESE,120,1.0,7.0,78,0.00,,,0.00,Wunderground v.1.15,2013-03-05 13:05:00,
2013-03-05 08:15:00,52.0,44.3,30.08,ESE,118,1.0,7.0,75,0.00,,,0.00,Wunderground v.1.15,2013-03-05 13:15:00,
2013-03-05 08:20:00,52.8,44.7,30.08,ESE,116,0.0,7.0,74,0.00,,,0.00,Wunderground v.1.15,2013-03-05 13:20:00,
2013-03-05 08:30:00,53.5,44.3,30.08,ESE,115,2.0,2.0,71,0.00,,,0.00,Wunderground v.1.15,2013-03-05 13:30:00,
2013-03-05 08:40:00,54.2,44.2,30.08,SE,133,2.0,2.0,69,0.00,,,0.00,Wunderground v.1.15,2013-03-05 13:40:00,
2013-03-05 08:45:00,55.1,44.7,30.09,SE,137,0.0,7.0,68,0.00,,,0.00,Wunderground v.1.15,2013-03-05 13:45:00,
2013-03-05 08:55:00,56.2,45.8,30.09,SE,131,0.0,7.0,68,0.00,,,0.00,Wunderground v.1.15,2013-03-05 13:55:00,
2013-03-05 09:00:00,56.6,45.8,30.08,SE,124,1.0,1.0,67,0.00,,,0.00,Wunderground v.1.15,2013-03-05 14:00:00,
2013-03-05 09:10:00,57.6,47.1,30.08,SSE,148,1.0,1.0,68,0.00,,,0.00,Wunderground v.1.15,2013-03-05 14:10:00,
2013-03-05 09:25:00,59.3,48.3,30.09,East,83,0.0,0.0,67,0.00,,,0.00,Wunderground v.1.15,2013-03-05 14:25:00,
2013-03-05 09:35:00,60.4,49.4,30.09,SSE,160,1.0,1.0,67,0.00,,,0.00,Wunderground v.1.15,2013-03-05 14:35:00,
2013-03-05 09:45:00,61.3,49.8,30.09,SSE,152,1.0,9.0,66,0.00,,,0.00,Wunderground v.1.15,2013-03-05 14:45:00,
2013-03-05 09:50:00,62.0,50.5,30.09,SE,129,1.0,1.0,66,0.00,,,0.00,Wunderground v.1.15,2013-03-05 14:50:00,
2013-03-05 10:00:00,62.6,51.5,30.08,ESE,110,2.0,2.0,67,0.00,,,0.00,Wunderground v.1.15,2013-03-05 15:00:00,
2013-03-05 10:05:00,62.9,51.4,30.08,South,190,2.0,10.0,66,0.00,,,0.00,Wunderground v.1.15,2013-03-05 15:05:00,
2013-03-05 10:15:00,63.5,52.7,30.09,SSE,162,2.0,2.0,68,0.00,,,0.00,Wunderground v.1.15,2013-03-05 15:15:00,
2013-03-05 10:20:00,64.2,53.4,30.09,SW,236,2.0,2.0,68,0.00,,,0.00,Wunderground v.1.15,2013-03-05 15:20:00,
2013-03-05 10:30:00,64.5,54.1,30.09,South,191,9.0,9.0,69,0.00,,,0.00,Wunderground v.1.15,2013-03-05 15:30:00,
2013-03-05 10:35:00,64.7,54.3,30.09,SSW,193,13.0,17.0,69,0.00,,,0.00,Wunderground v.1.15,2013-03-05 15:35:00,
2013-03-05 10:45:00,65.6,55.2,30.09,WSW,237,7.0,16.0,69,0.00,,,0.00,Wunderground v.1.15,2013-03-05 15:45:00,
2013-03-05 10:50:00,65.8,54.9,30.09,SSE,164,8.0,13.0,68,0.00,,,0.00,Wunderground v.1.15,2013-03-05 15:50:00,
2013-03-05 11:00:00,65.5,55.1,30.09,South,170,14.0,14.0,69,0.00,,,0.00,Wunderground v.1.15,2013-03-05 16:00:00,
2013-03-05 11:05:00,65.8,55.3,30.09,SSW,211,14.0,16.0,69,0.00,,,0.00,Wunderground v.1.15,2013-03-05 16:05:00,
2013-03-05 11:15:00,65.6,54.8,30.08,SSW,210,16.0,16.0,68,0.00,,,0.00,Wunderground v.1.15,2013-03-05 16:15:00,
2013-03-05 11:25:00,66.0,54.7,30.08,SSW,196,10.0,13.0,67,0.00,,,0.00,Wunderground v.1.15,2013-03-05 16:25:00,
2013-03-05 11:30:00,66.3,55.0,30.08,SW,233,10.0,11.0,67,0.00,,,0.00,Wunderground v.1.15,2013-03-05 16:30:00,
2013-03-05 11:35:00,66.4,55.5,30.08,SSW,213,9.0,14.0,68,0.00,,,0.00,Wunderground v.1.15,2013-03-05 16:35:00,
2013-03-05 11:45:00,66.6,54.5,30.08,West,259,12.0,14.0,65,0.00,,,0.00,Wunderground v.1.15,2013-03-05 16:45:00,
2013-03-05 11:55:00,67.1,54.1,30.08,SW,233,10.0,15.0,63,0.00,,,0.00,Wunderground v.1.15,2013-03-05 16:55:00,
2013-03-05 12:00:00,67.3,54.7,30.08,South,174,10.0,18.0,64,0.00,,,0.00,Wunderground v.1.15,2013-03-05 17:00:00,
2013-03-05 12:05:00,66.9,54.3,30.08,SSW,210,12.0,18.0,64,0.00,,,0.00,Wunderground v.1.15,2013-03-05 17:05:00,
2013-03-05 12:15:00,67.3,54.3,30.08,South,178,10.0,16.0,63,0.00,,,0.00,Wunderground v.1.15,2013-03-05 17:15:00,
2013-03-05 12:25:00,67.8,54.3,30.08,SE,137,9.0,10.0,62,0.00,,,0.00,Wunderground v.1.15,2013-03-05 17:25:00,
2013-03-05 12:30:00,67.4,53.5,30.07,South,184,11.0,18.0,61,0.00,,,0.00,Wunderground v.1.15,2013-03-05 17:30:00,
2013-03-05 12:40:00,67.6,53.2,30.07,SSE,164,13.0,13.0,60,0.00,,,0.00,Wunderground v.1.15,2013-03-05 17:40:00,
2013-03-05 12:45:00,67.9,54.0,30.06,SW,227,10.0,13.0,61,0.00,,,0.00,Wunderground v.1.15,2013-03-05 17:45:00,
2013-03-05 12:55:00,68.1,54.1,30.06,South,187,10.0,15.0,61,0.00,,,0.00,Wunderground v.1.15,2013-03-05 17:55:00,
2013-03-05 13:00:00,68.3,53.4,30.06,South,187,11.0,11.0,59,0.00,,,0.00,Wunderground v.1.15,2013-03-05 18:00:00,
2013-03-05 13:10:00,68.6,52.8,30.06,WSW,246,13.0,28.0,57,0.00,,,0.00,Wunderground v.1.15,2013-03-05 18:10:00,
2013-03-05 13:20:00,68.9,52.6,30.05,SW,233,12.0,28.0,56,0.00,,,0.00,Wunderground v.1.15,2013-03-05 18:20:00,
2013-03-05 13:25:00,68.9,53.5,30.05,SW,235,11.0,28.0,58,0.00,,,0.00,Wunderground v.1.15,2013-03-05 18:25:00,
2013-03-05 13:30:00,69.1,53.7,30.05,WSW,250,10.0,28.0,58,0.00,,,0.00,Wunderground v.1.15,2013-03-05 18:30:00,
2013-03-05 13:40:00,68.8,53.9,30.05,SSE,160,14.0,14.0,59,0.00,,,0.00,Wunderground v.1.15,2013-03-05 18:40:00,
2013-03-05 13:50:00,68.8,52.9,30.05,SW,231,11.0,28.0,57,0.00,,,0.00,Wunderground v.1.15,2013-03-05 18:50:00,
2013-03-05 13:55:00,68.8,53.4,30.05,SW,231,14.0,28.0,58,0.00,,,0.00,Wunderground v.1.15,2013-03-05 18:55:00,
2013-03-05 14:05:00,68.8,53.9,30.03,SW,232,15.0,28.0,59,0.00,,,0.00,Wunderground v.1.15,2013-03-05 19:05:00,
2013-03-05 14:10:00,69.1,53.7,30.03,SSW,210,14.0,28.0,58,0.00,,,0.00,Wunderground v.1.15,2013-03-05 19:10:00,
2013-03-05 14:20:00,68.9,54.0,30.02,SSW,210,14.0,28.0,59,0.00,,,0.00,Wunderground v.1.15,2013-03-05 19:20:00,
2013-03-05 14:30:00,68.8,54.8,30.03,SW,221,14.0,14.0,61,0.00,,,0.00,Wunderground v.1.15,2013-03-05 19:30:00,
2013-03-05 14:40:00,69.1,54.6,30.03,WSW,249,11.0,28.0,60,0.00,,,0.00,Wunderground v.1.15,2013-03-05 19:40:00,
2013-03-05 14:45:00,69.4,54.9,30.02,SW,226,11.0,28.0,60,0.00,,,0.00,Wunderground v.1.15,2013-03-05 19:45:00,
2013-03-05 14:55:00,69.4,54.9,30.02,WSW,237,11.0,28.0,60,0.00,,,0.00,Wunderground v.1.15,2013-03-05 19:55:00,
2013-03-05 15:05:00,69.1,55.1,30.02,SW,218,13.0,28.0,61,0.00,,,0.00,Wunderground v.1.15,2013-03-05 20:05:00,
2013-03-05 15:15:00,69.4,55.4,30.02,SW,225,11.0,14.0,61,0.00,,,0.00,Wunderground v.1.15,2013-03-05 20:15:00,
2013-03-05 15:20:00,69.3,55.7,30.02,SSW,211,12.0,12.0,62,0.00,,,0.00,Wunderground v.1.15,2013-03-05 20:20:00,
2013-03-05 15:30:00,69.4,55.8,30.02,SSW,198,12.0,19.0,62,0.00,,,0.00,Wunderground v.1.15,2013-03-05 20:30:00,
2013-03-05 15:40:00,69.1,55.5,30.02,SW,215,14.0,17.0,62,0.00,,,0.00,Wunderground v.1.15,2013-03-05 20:40:00,
2013-03-05 15:50:00,69.4,55.8,30.02,WSW,240,8.0,8.0,62,0.00,,,0.00,Wunderground v.1.15,2013-03-05 20:50:00,
2013-03-05 16:00:00,69.1,56.4,30.03,WNW,295,11.0,11.0,64,0.00,,,0.00,Wunderground v.1.15,2013-03-05 21:00:00,
2013-03-05 16:05:00,69.8,55.7,30.03,West,276,9.0,19.0,61,0.00,,,0.00,Wunderground v.1.15,2013-03-05 21:05:00,
2013-03-05 16:15:00,68.8,56.1,30.03,WSW,245,17.0,27.0,64,0.00,,,0.00,Wunderground v.1.15,2013-03-05 21:15:00,
2013-03-05 16:20:00,68.8,56.6,30.03,SW,222,15.0,27.0,65,0.00,,,0.00,Wunderground v.1.15,2013-03-05 21:20:00,
2013-03-05 16:30:00,68.6,56.4,30.03,SSW,193,13.0,13.0,65,0.00,,,0.00,Wunderground v.1.15,2013-03-05 21:30:00,
2013-03-05 16:40:00,68.6,56.4,30.03,SW,231,13.0,27.0,65,0.00,,,0.00,Wunderground v.1.15,2013-03-05 21:40:00,
2013-03-05 16:50:00,68.6,56.4,30.02,West,278,15.0,27.0,65,0.00,,,0.00,Wunderground v.1.15,2013-03-05 21:50:00,
2013-03-05 16:55:00,68.6,56.4,30.02,SSW,212,13.0,27.0,65,0.00,,,0.00,Wunderground v.1.15,2013-03-05 21:55:00,
2013-03-05 17:05:00,68.3,56.5,30.02,WSW,254,16.0,27.0,66,0.00,,,0.00,Wunderground v.1.15,2013-03-05 22:05:00,
2013-03-05 17:15:00,68.1,56.7,30.02,West,266,15.0,27.0,67,0.00,,,0.00,Wunderground v.1.15,2013-03-05 22:15:00,
2013-03-05 17:25:00,68.3,56.9,30.02,SW,232,10.0,27.0,67,0.00,,,0.00,Wunderground v.1.15,2013-03-05 22:25:00,
2013-03-05 17:30:00,68.3,56.5,30.02,WSW,239,9.0,27.0,66,0.00,,,0.00,Wunderground v.1.15,2013-03-05 22:30:00,
2013-03-05 17:40:00,67.9,56.5,30.02,SW,229,11.0,11.0,67,0.00,,,0.00,Wunderground v.1.15,2013-03-05 22:40:00,
2013-03-05 17:50:00,67.8,56.9,30.02,WSW,243,10.0,10.0,68,0.00,,,0.00,Wunderground v.1.15,2013-03-05 22:50:00,
2013-03-05 17:55:00,67.6,56.7,30.02,SW,220,9.0,27.0,68,0.00,,,0.00,Wunderground v.1.15,2013-03-05 22:55:00,
2013-03-05 18:05:00,67.4,56.9,30.02,WSW,240,5.0,27.0,69,0.00,,,0.00,Wunderground v.1.15,2013-03-05 23:05:00,
2013-03-05 18:15:00,67.3,57.2,30.02,SSW,194,1.0,4.0,70,0.00,,,0.00,Wunderground v.1.15,2013-03-05 23:15:00,
2013-03-05 18:20:00,66.9,57.2,30.02,South,174,4.0,4.0,71,0.00,,,0.00,Wunderground v.1.15,2013-03-05 23:20:00,
2013-03-05 18:30:00,66.3,57.4,30.01,SSW,198,5.0,18.0,73,0.00,,,0.00,Wunderground v.1.15,2013-03-05 23:30:00,
2013-03-05 18:40:00,66.0,57.5,30.01,SW,223,4.0,4.0,74,0.00,,,0.00,Wunderground v.1.15,2013-03-05 23:40:00,
2013-03-05 18:45:00,65.8,57.7,30.01,SSE,168,4.0,5.0,75,0.00,,,0.00,Wunderground v.1.15,2013-03-05 23:45:00,
2013-03-05 18:55:00,65.3,57.9,30.01,South,178,3.0,5.0,77,0.00,,,0.00,Wunderground v.1.15,2013-03-05 23:55:00,
2013-03-05 19:00:00,65.2,57.8,30.01,SSW,193,1.0,1.0,77,0.00,,,0.00,Wunderground v.1.15,2013-03-06 00:00:00,
2013-03-05 19:10:00,64.8,57.8,30.01,SSW,202,1.0,14.0,78,0.00,,,0.00,Wunderground v.1.15,2013-03-06 00:10:00,
2013-03-05 19:20:00,64.5,58.2,30.01,South,186,1.0,1.0,80,0.00,,,0.00,Wunderground v.1.15,2013-03-06 00:20:00,
2013-03-05 19:25:00,64.3,58.0,30.01,SSW,196,0.0,14.0,80,0.00,,,0.00,Wunderground v.1.15,2013-03-06 00:25:00,
2013-03-05 19:35:00,64.2,58.2,30.00,South,182,1.0,14.0,81,0.00,,,0.00,Wunderground v.1.15,2013-03-06 00:35:00,
2013-03-05 19:45:00,64.0,58.4,30.00,SSW,202,1.0,14.0,82,0.00,,,0.00,Wunderground v.1.15,2013-03-06 00:45:00,
2013-03-05 19:50:00,63.9,58.6,30.00,South,170,2.0,14.0,83,0.00,,,0.00,Wunderground v.1.15,2013-03-06 00:50:00,
2013-03-05 20:00:00,63.9,59.0,30.00,South,176,1.0,1.0,84,0.00,,,0.00,Wunderground v.1.15,2013-03-06 01:00:00,
2013-03-05 20:10:00,63.9,59.0,30.00,South,179,1.0,1.0,84,0.00,,,0.00,Wunderground v.1.15,2013-03-06 01:10:00,
2013-03-05 20:15:00,63.9,59.0,30.00,SSW,197,2.0,2.0,84,0.00,,,0.00,Wunderground v.1.15,2013-03-06 01:15:00,
2013-03-05 20:25:00,63.9,59.3,30.00,SSW,207,2.0,14.0,85,0.00,,,0.00,Wunderground v.1.15,2013-03-06 01:25:00,
2013-03-05 20:35:00,63.9,59.3,30.00,SSE,160,5.0,14.0,85,0.00,,,0.00,Wunderground v.1.15,2013-03-06 01:35:00,
2013-03-05 20:40:00,63.9,59.3,30.00,SSE,163,4.0,4.0,85,0.00,,,0.00,Wunderground v.1.15,2013-03-06 01:40:00,
2013-03-05 20:50:00,63.9,59.6,30.00,South,183,3.0,3.0,86,0.00,,,0.00,Wunderground v.1.15,2013-03-06 01:50:00,
2013-03-05 20:55:00,63.9,59.6,30.00,SSE,163,3.0,6.0,86,0.00,,,0.00,Wunderground v.1.15,2013-03-06 01:55:00,
2013-03-05 21:05:00,64.0,60.1,29.99,SSW,195,6.0,14.0,87,0.00,,,0.00,Wunderground v.1.15,2013-03-06 02:05:00,
2013-03-05 21:15:00,64.2,60.2,29.99,South,184,8.0,9.0,87,0.00,,,0.00,Wunderground v.1.15,2013-03-06 02:15:00,
2013-03-05 21:25:00,64.3,60.3,29.99,South,180,8.0,9.0,87,0.00,,,0.00,Wunderground v.1.15,2013-03-06 02:25:00,
2013-03-05 21:35:00,64.3,60.7,29.99,South,184,9.0,21.0,88,0.00,,,0.00,Wunderground v.1.15,2013-03-06 02:35:00,
2013-03-05 21:40:00,64.3,60.7,29.99,South,191,10.0,11.0,88,0.00,,,0.00,Wunderground v.1.15,2013-03-06 02:40:00,
2013-03-05 21:50:00,64.3,60.7,29.98,SSW,203,10.0,10.0,88,0.00,,,0.00,Wunderground v.1.15,2013-03-06 02:50:00,
2013-03-05 21:55:00,64.2,60.6,29.98,SSE,168,8.0,10.0,88,0.00,,,0.00,Wunderground v.1.15,2013-03-06 02:55:00,
2013-03-05 22:05:00,64.3,60.7,29.99,South,191,11.0,11.0,88,0.00,,,0.00,Wunderground v.1.15,2013-03-06 03:05:00,
2013-03-05 22:15:00,64.3,60.7,29.99,South,172,10.0,21.0,88,0.00,,,0.00,Wunderground v.1.15,2013-03-06 03:15:00,
2013-03-05 22:20:00,64.3,60.7,29.99,South,169,13.0,13.0,88,0.00,,,0.00,Wunderground v.1.15,2013-03-06 03:20:00,
2013-03-05 22:30:00,64.3,61.0,29.98,South,172,12.0,21.0,89,0.00,,,0.00,Wunderground v.1.15,2013-03-06 03:30:00,
2013-03-05 22:40:00,64.3,61.0,29.98,SSW,196,13.0,13.0,89,0.00,,,0.00,Wunderground v.1.15,2013-03-06 03:40:00,
2013-03-05 22:50:00,64.5,61.2,29.98,South,186,11.0,21.0,89,0.00,,,0.00,Wunderground v.1.15,2013-03-06 03:50:00,
2013-03-05 22:55:00,64.5,61.2,29.98,South,174,12.0,21.0,89,0.00,,,0.00,Wunderground v.1.15,2013-03-06 03:55:00,
2013-03-05 23:05:00,64.5,61.2,29.98,SSE,162,10.0,21.0,89,0.00,,,0.00,Wunderground v.1.15,2013-03-06 04:05:00,
2013-03-05 23:10:00,64.5,61.2,29.98,South,174,8.0,8.0,89,0.00,,,0.00,Wunderground v.1.15,2013-03-06 04:10:00,
2013-03-05 23:20:00,64.5,61.2,29.98,SSW,200,9.0,9.0,89,0.00,,,0.00,Wunderground v.1.15,2013-03-06 04:20:00,
2013-03-05 23:30:00,64.7,61.7,29.98,SSW,198,8.0,8.0,90,0.00,,,0.00,Wunderground v.1.15,2013-03-06 04:30:00,
2013-03-05 23:35:00,64.8,61.5,29.98,South,176,8.0,11.0,89,0.00,,,0.00,Wunderground v.1.15,2013-03-06 04:35:00,
2013-03-05 23:45:00,65.0,62.9,29.97,SW,219,6.0,21.0,93,0.00,,,0.00,Wunderground v.1.15,2013-03-06 04:45:00,
2013-03-05 23:55:00,65.2,61.9,29.97,SSE,167,8.0,21.0,89,0.00,,,0.00,Wunderground v.1.15,2013-03-06 04:55:00,